Midville, Georgia
Current Conditions -  °F | °C
As of 10:35 PM on Sunday 21 Dec 2014 (Local Time) from KOKZ Reporting Station
Haze Haze  
Wind Chill: 42°   Ceiling: 800
Heat Index: 47°   Visibility: 5mi
Dew Point: 46°   Wind: 10mph
Humidity: 97%   Direction: 100°E
Pressure: 30.11"   Gusts: NA
Location:  32.82°N, 82.23°W
Report Text: KOKZ 220335Z AUTO 10009KT 5SM BR OVC008 08/08 A3011 RMK AO2 T00840079
Loading
Personal Weather Stations






























Interactive Weather Map New forecast layout! Learn more

10-Day Weather Forecast

Advertisements
Track Severe Weather on mobile